Latest Coastal Weather Observations for Portland Airport

IDS60701

Issued at 4:11 am CDT Sunday 29 March 2015 (issued every 10 minutes, with the page automatically refreshed every 10 minutes)

About coastal observations | Map of coastal stations | Coastal observations for SA | Marine services | Other Formats
Station Details ID: 090171 Name: CASHMORE AIRPORT Lat: -38.31 Lon: 141.47 Height: 80.9 m
Data from the previous 72 hours. | See also: Recent months at Portland Airport
Date/Time
CDT
Temp

°C
Wind Pressure Rain
since 9am
mm
Weather Cloud Vis
km
Sea
Height
m
Swell
Dir
 
Speed
knots
Gust
knots
hPa Trend Height
m
Period
s
Dir
29/04:00am 7.2 NNW 4 5 1020.6 - 0.2 - Partly cloudy 10 - - - -
29/03:30am 8.5 NNW 6 7 1020.5 - 0.2 - Partly cloudy 10 - - - -
29/03:00am 8.7 NNW 6 7 1020.7 - 0.2 - - 10 - - - -
29/02:30am 8.7 NNW 6 7 1020.9 - 0.2 - - 10 - - - -
29/02:00am 8.7 NNW 6 7 1020.9 - 0.2 - - 10 - - - -
29/01:30am 8.6 N 7 7 1020.9 - 0.2 - - 10 - - - -
29/01:00am 9.0 N 6 7 1021.0 - 0.2 - - 10 - - - -
29/12:30am 9.0 N 6 7 1021.1 - 0.0 - - 10 - - - -
29/12:00am 8.8 N 6 7 1021.4 - 0.0 - - 10 - - - -
 
Date/Time
CDT
Temp

°C
Wind Pressure Rain
since 9am
mm
Weather Cloud Vis
km
Sea
Height
m
Swell
Dir
 
Speed
knots
Gust
knots
hPa Trend Height
m
Period
s
Dir
28/11:30pm 8.7 N 7 7 1021.7 - 0.0 - - 10 - - - -
28/11:00pm 9.2 N 6 7 1021.9 - 0.0 - - 10 - - - -
28/10:30pm 9.0 WNW 3 4 1022.0 - 0.0 - - 10 - - - -
28/10:00pm 9.4 WNW 3 5 1022.3 - 0.0 - - 10 - - - -
28/09:30pm 9.5 WNW 3 4 1022.5 - 0.0 - - 10 - - - -
28/09:00pm 9.7 CALM 0 0 1022.4 - 0.0 - - 10 - - - -
28/08:30pm 10.1 W 3 4 1022.2 - 0.0 - - 10 - - - -
28/08:00pm 10.7 W 4 4 1022.2 - 0.0 - Partly cloudy 10 - - - -
28/07:30pm 11.3 W 5 6 1022.1 - 0.0 - - 10 - - - -
28/07:00pm 13.1 W 5 7 1022.1 - 0.0 - - 10 - - - -
28/06:30pm 14.7 W 7 9 1022.0 - 0.0 - Partly cloudy 10 - - - -
28/06:00pm 15.7 W 10 12 1021.9 - 0.0 - Cloudy 10 - - - -
28/05:30pm 15.7 W 9 12 1021.9 - 0.0 - Partly cloudy 10 - - - -
28/05:00pm 16.5 W 8 11 1022.0 - 0.0 - Partly cloudy 10 - - - -
28/04:30pm 16.5 W 9 12 1022.3 - 0.0 - Partly cloudy 10 - - - -
28/04:00pm 16.2 W 8 11 1022.6 - 0.0 - Partly cloudy 10 - - - -
28/03:30pm 15.9 W 8 12 1023.0 - 0.0 - Cloudy 10 - - - -
28/03:00pm 15.7 W 9 12 1023.3 - 0.0 - Cloudy 10 - - - -
28/02:30pm 15.6 WNW 8 11 1023.4 - 0.0 - Cloudy 10 - - - -
28/02:00pm 15.4 W 9 13 1023.8 - 0.0 - Cloudy 10 - - - -
28/01:30pm 15.4 WNW 9 13 1024.1 - 0.0 - Cloudy 10 - - - -
28/01:00pm 15.1 WNW 9 12 1024.4 - 0.0 - Cloudy 10 - - - -
28/12:30pm 14.9 WNW 9 12 1024.8 - 0.0 - Partly cloudy 10 - - - -
28/12:00pm 15.1 NW 9 12 1025.0 - 0.0 - Partly cloudy 10 - - - -
28/11:30am 15.3 NW 8 12 1025.2 - 0.0 - Mostly cloudy 10 - - - -
28/11:00am 14.6 NNW 9 13 1025.7 - 0.0 - Cloudy 10 - - - -
28/10:30am 13.5 NNW 7 10 1025.9 - 0.0 - Cloudy 10 - - - -
28/10:00am 13.1 N 6 8 1025.7 - 0.0 - Cloudy 10 - - - -
28/09:30am 12.6 NNW 5 6 1026.1 - 0.0 - Partly cloudy 10 - - - -
28/09:00am 12.0 WNW 5 6 1026.4 - 0.0 - Partly cloudy 10 - - - -
28/08:39am 11.4 WNW 5 6 1026.2 - 0.0 - Cloudy 10 - - - -
28/08:30am 11.5 WNW 6 8 1026.1 - 4.8 Recent precip. Cloudy 7 - - - -
28/08:23am 11.4 NW 7 9 1026.1 - 4.8 - Partly cloudy 4 - - - -
28/08:00am 11.1 NW 8 10 1026.0 - 4.8 - Cloudy 2 - - - -
28/07:30am 11.1 NW 6 9 1025.5 - 4.2 - Partly cloudy 3 - - - -
28/07:08am 11.1 NW 5 8 1025.4 - 3.8 - Partly cloudy 6 - - - -
28/07:04am 11.1 NW 5 7 1025.4 - 3.8 - Partly cloudy 10 - - - -
28/07:00am 11.1 NW 5 7 1025.3 - 3.8 - Partly cloudy 9 - - - -
28/06:38am 11.0 NNW 5 8 1025.1 - 3.6 - Partly cloudy 5 - - - -
28/06:37am 10.9 NNW 5 8 1025.1 - 3.6 - Partly cloudy 6 - - - -
28/06:30am 10.8 N 5 7 1025.1 - 3.6 - Partly cloudy 10 - - - -
28/06:00am 10.7 NNW 4 5 1024.7 - 3.6 - Partly cloudy 10 - - - -
28/05:37am 11.0 NNW 3 5 1024.6 - 3.6 - Partly cloudy 10 - - - -
28/05:30am 11.0 NNW 4 5 1024.6 - 3.6 Recent precip. Mostly cloudy 10 - - - -
28/05:00am 11.0 NNW 4 5 1024.8 - 3.4 - Partly cloudy 2 - - - -
28/04:30am 11.0 NW 5 7 1024.9 - 3.0 - Partly cloudy 2 - - - -
28/04:00am 10.7 NNW 4 6 1025.0 - 2.2 - Partly cloudy 2 - - - -
28/03:55am 10.7 NNW 4 5 1025.0 - 2.0 - Partly cloudy 2 - - - -
28/03:45am 10.6 NNW 4 5 1025.1 - 2.0 - Partly cloudy 6 - - - -
28/03:30am 10.7 NNW 4 5 1025.0 - 1.8 - Partly cloudy 10 - - - -
28/03:00am 11.2 NNW 3 4 1025.2 - 1.8 - Cloudy 10 - - - -
28/02:45am 11.4 CALM 0 0 1025.3 - 1.8 - Partly cloudy 10 - - - -
28/02:39am 11.4 CALM 0 0 1025.4 - 1.8 - Partly cloudy 10 - - - -
28/02:30am 11.4 CALM 0 0 1025.4 - 1.8 Recent precip. Cloudy 4 - - - -
28/02:06am 11.5 NNW 3 4 1025.6 - 1.4 - Partly cloudy 4 - - - -
28/02:00am 11.4 NNW 3 5 1025.6 - 1.4 - Partly cloudy 6 - - - -
28/01:59am 11.4 NNW 4 5 1025.7 - 1.4 - Partly cloudy 6 - - - -
28/01:41am 11.4 N 4 6 1025.9 - 1.2 - Partly cloudy 10 - - - -
28/01:30am 11.5 NNW 4 7 1026.0 - 1.2 - Partly cloudy 5 - - - -
28/01:13am 11.5 NNW 4 6 1026.1 - 1.2 - Partly cloudy 6 - - - -
28/01:00am 11.3 N 5 6 1026.0 - 1.2 - Partly cloudy 10 - - - -
28/12:30am 11.3 SW 4 4 1026.0 - 1.2 - Partly cloudy 10 - - - -
28/12:00am 11.4 CALM 0 0 1026.2 - 1.2 - Partly cloudy 10 - - - -
 
Date/Time
CDT
Temp

°C
Wind Pressure Rain
since 9am
mm
Weather Cloud Vis
km
Sea
Height
m
Swell
Dir
 
Speed
knots
Gust
knots
hPa Trend Height
m
Period
s
Dir
27/11:52pm 11.6 CALM 0 0 1026.2 - 1.2 - Partly cloudy 10 - - - -
27/11:30pm 11.6 CALM 0 0 1026.3 - 1.2 Recent precip. Cloudy 10 - - - -
27/11:24pm 11.6 CALM 0 0 1026.3 - 1.2 - Partly cloudy 10 - - - -
27/11:06pm 11.3 SW 1 4 1026.4 - 1.2 - Partly cloudy 4 - - - -
27/11:00pm 10.9 WSW 1 3 1026.5 - 1.2 - Partly cloudy 5 - - - -
27/10:59pm 10.9 WSW 1 3 1026.5 - 1.2 - Partly cloudy 6 - - - -
27/10:30pm 10.7 CALM 0 0 1026.4 - 1.0 - - 10 - - - -
27/10:00pm 11.7 WSW 1 4 1026.5 - 1.0 - Partly cloudy 10 - - - -
27/09:35pm 12.1 WSW 5 6 1026.7 - 1.0 - Partly cloudy 10 - - - -
27/09:30pm 12.2 WSW 5 7 1026.7 - 1.0 - Partly cloudy 9 - - - -
27/09:17pm 12.3 SW 5 7 1026.8 - 1.0 - Partly cloudy 6 - - - -
27/09:09pm 12.4 SW 5 6 1026.7 - 1.0 - Partly cloudy 9 - - - -
27/09:00pm 12.5 SSE 3 6 1026.7 - 1.0 - Partly cloudy 7 - - - -
27/08:50pm 12.7 CALM 0 0 1026.7 - 1.0 - Partly cloudy 6 - - - -
27/08:46pm 12.8 CALM 0 0 1026.6 - 1.0 - Partly cloudy 8 - - - -
27/08:36pm 12.8 CALM 0 0 1026.6 - 1.0 - Cloudy 6 - - - -
27/08:30pm 12.8 CALM 0 0 1026.6 - 1.0 - Cloudy 7 - - - -
27/08:00pm 13.2 S 4 6 1026.4 - 1.0 - Partly cloudy 10 - - - -
27/07:30pm 13.1 SW 2 3 1026.1 - 1.0 - Partly cloudy 10 - - - -
27/07:00pm 13.4 SSW 4 6 1025.9 - 1.0 - Cloudy 10 - - - -
27/06:30pm 13.6 SSW 6 9 1025.7 - 1.0 - Partly cloudy 10 - - - -
27/06:00pm 14.0 S 5 8 1025.6 - 1.0 - Partly cloudy 10 - - - -
27/05:30pm 14.5 SW 7 10 1025.4 - 1.0 - Cloudy 10 - - - -
27/05:00pm 14.3 SW 8 12 1025.3 - 1.0 - Partly cloudy 10 - - - -
27/04:30pm 14.6 SSW 7 12 1025.3 - 1.0 - Partly cloudy 10 - - - -
27/04:00pm 14.5 SSW 9 13 1025.4 - 1.0 - Partly cloudy 10 - - - -
27/03:30pm 15.2 SW 9 15 1025.4 - 1.0 - Partly cloudy 10 - - - -
27/03:00pm 14.1 SSW 9 16 1025.5 - 1.0 - Partly cloudy 10 - - - -
27/02:30pm 15.4 SSW 8 15 1025.5 - 1.0 - Cloudy 10 - - - -
27/02:00pm 14.0 S 9 14 1025.7 - 1.0 - Partly cloudy 10 - - - -
27/01:30pm 14.6 SW 8 12 1026.0 - 1.0 - Partly cloudy 10 - - - -
27/01:07pm 13.7 SSW 8 12 1026.2 - 1.0 - Partly cloudy 10 - - - -
27/01:00pm 13.7 SSW 8 14 1026.2 - 1.0 - Partly cloudy 10 - - - -
27/12:53pm 13.7 SSW 9 14 1026.3 - 1.0 - Partly cloudy 10 - - - -
27/12:49pm 13.3 SSW 8 12 1026.4 - 1.0 - Partly cloudy 10 - - - -
27/12:32pm 13.2 SW 12 18 1026.6 - 1.0 - Partly cloudy 6 - - - -
27/12:30pm 13.5 WSW 13 18 1026.6 - 0.6 - Partly cloudy 10 - - - -
27/12:00pm 14.8 W 14 17 1026.4 - 0.0 - Partly cloudy 10 - - - -
27/11:30am 14.8 WSW 12 15 1026.4 - 0.0 - Cloudy 10 - - - -
27/11:00am 14.6 SW 9 13 1026.4 - 0.0 - Partly cloudy 10 - - - -
27/10:30am 13.1 SW 9 13 1026.4 - 0.0 - Partly cloudy 10 - - - -
27/10:00am 13.8 SSW 8 16 1026.3 - 0.0 - Partly cloudy 10 - - - -
27/09:30am 13.2 SW 8 14 1026.1 - 0.0 - Partly cloudy 10 - - - -
27/09:00am 12.9 SSW 9 14 1025.9 - 0.0 - Cloudy 10 - - - -
27/08:30am 12.1 SW 9 13 1025.6 - 15.0 - Cloudy 10 - - - -
27/08:00am 11.6 SW 11 17 1025.3 - 15.0 - Partly cloudy 10 - - - -
27/07:30am 11.4 SW 8 11 1025.0 - 15.0 - Partly cloudy 10 - - - -
27/07:17am 11.1 SW 8 14 1024.9 - 15.0 - Partly cloudy 10 - - - -
27/07:05am 11.2 SW 9 14 1024.8 - 15.0 - Partly cloudy 10 - - - -
27/07:04am 11.3 SW 8 12 1024.8 - 15.0 - Partly cloudy 10 - - - -
27/07:00am 11.2 SW 9 14 1024.7 - 15.0 - Partly cloudy 10 - - - -
27/06:50am 11.4 SW 11 15 1024.6 - 14.8 - Partly cloudy 6 - - - -
27/06:30am 10.9 SW 10 14 1024.3 - 14.6 - Partly cloudy 10 - - - -
27/06:27am 11.0 SW 10 14 1024.3 - 14.6 - Partly cloudy 10 - - - -
27/06:11am 11.4 SW 9 12 1024.2 - 14.6 - Partly cloudy 6 - - - -
27/06:00am 11.1 SW 8 15 1024.0 - 14.0 - Partly cloudy 10 - - - -
27/05:41am 11.3 SW 9 12 1023.8 - 13.6 - Partly cloudy 10 - - - -
27/05:30am 11.5 SW 11 18 1023.8 - 13.6 - Cloudy 6 - - - -
27/05:28am 11.6 SW 12 18 1023.8 - 13.6 - Partly cloudy 6 - - - -
27/05:00am 11.8 WSW 12 17 1023.7 - 13.6 - Partly cloudy 10 - - - -
27/04:30am 12.1 SW 9 14 1023.4 - 13.6 - Partly cloudy 10 - - - -
27/04:00am 12.2 SW 9 15 1023.3 - 13.6 - Partly cloudy 10 - - - -
27/03:30am 12.2 SW 11 17 1023.2 - 13.6 - Partly cloudy 10 - - - -
27/03:00am 11.9 SW 9 12 1023.1 - 13.6 - Partly cloudy 10 - - - -
27/02:30am 12.6 SW 12 18 1023.2 - 13.6 - Cloudy 10 - - - -
27/02:00am 12.7 SW 12 17 1023.0 - 13.6 - Partly cloudy 10 - - - -
27/01:30am 12.5 SW 11 15 1023.0 - 13.6 - Partly cloudy 10 - - - -
27/01:00am 12.1 SW 10 15 1022.9 - 13.6 - Partly cloudy 10 - - - -
27/12:30am 11.9 SW 12 20 1022.9 - 13.6 - Partly cloudy 10 - - - -
27/12:00am 13.0 SW 11 17 1022.9 - 13.6 - Partly cloudy 10 - - - -
 
Date/Time
CDT
Temp

°C
Wind Pressure Rain
since 9am
mm
Weather Cloud Vis
km
Sea
Height
m
Swell
Dir
 
Speed
knots
Gust
knots
hPa Trend Height
m
Period
s
Dir
26/11:30pm 12.8 SW 12 21 1022.8 - 13.6 - Cloudy 10 - - - -
26/11:00pm 12.6 SW 11 17 1022.7 - 13.6 - Partly cloudy 10 - - - -
26/10:30pm 12.7 SW 12 20 1022.5 - 13.6 - Partly cloudy 10 - - - -
26/10:00pm 12.4 SW 11 17 1022.4 - 13.6 - Partly cloudy 10 - - - -
26/09:30pm 12.7 SW 13 19 1022.1 - 13.4 - Partly cloudy 10 - - - -
26/09:00pm 12.3 SW 13 23 1021.7 - 13.4 - Partly cloudy 10 - - - -
26/08:30pm 12.3 SW 14 21 1021.3 - 13.4 Recent precip. Cloudy 10 - - - -
26/08:03pm 12.4 SW 15 21 1021.0 - 13.4 - Partly cloudy 10 - - - -
26/08:00pm 12.4 SW 15 21 1021.0 - 13.4 - Partly cloudy 10 - - - -
26/07:42pm 12.3 SW 17 25 1020.7 - 13.0 - Partly cloudy 6 - - - -
26/07:30pm 12.7 WSW 15 22 1020.4 - 12.4 - Partly cloudy 10 - - - -
26/07:17pm 12.4 WSW 15 21 1020.2 - 12.4 - Partly cloudy 10 - - - -
26/07:03pm 12.8 SW 15 25 1020.0 - 12.4 - Partly cloudy 6 - - - -
26/07:01pm 13.0 WSW 16 25 1020.0 - 12.4 - Partly cloudy 6 - - - -
26/07:00pm 13.0 WSW 17 25 1019.9 - 12.2 - Partly cloudy 7 - - - -
26/06:38pm 12.8 WSW 17 24 1019.4 - 11.6 - Partly cloudy 10 - - - -
26/06:30pm 12.6 WSW 18 26 1019.4 - 11.6 - Partly cloudy 10 - - - -
26/06:14pm 12.8 WSW 19 31 1019.1 - 11.6 - Partly cloudy 10 - - - -
26/06:00pm 12.9 WSW 15 27 1018.6 - 11.6 - Partly cloudy 10 - - - -
26/05:58pm 12.7 WSW 15 27 1018.6 - 11.6 - Partly cloudy 10 - - - -
26/05:56pm 12.5 WSW 13 21 1018.7 - 11.6 - Partly cloudy 10 - - - -
26/05:51pm 12.1 SW 14 20 1018.8 - 11.6 - Partly cloudy 10 - - - -
26/05:30pm 12.7 WSW 17 28 1018.6 - 10.6 Rain Cloudy 4 - - - -
26/05:00pm 12.9 WSW 20 32 1018.0 - 8.6 - Partly cloudy 4 - - - -
26/04:30pm 12.9 WSW 23 33 1017.5 - 7.0 - Partly cloudy 8 - - - -
26/04:28pm 12.9 WSW 23 33 1017.4 - 7.0 - Partly cloudy 8 - - - -
26/04:15pm 13.0 WSW 22 30 1017.5 - 6.8 - Partly cloudy 6 - - - -
26/04:04pm 13.1 WSW 25 35 1017.4 - 6.6 - Cloudy 10 - - - -
26/04:00pm 13.1 WSW 25 34 1017.2 - 6.6 - Cloudy 10 - - - -
26/03:55pm 13.4 WSW 22 34 1017.3 - 6.6 - Partly cloudy 9 - - - -
26/03:36pm 12.9 W 26 36 1017.1 - 6.4 - Partly cloudy 6 - - - -
26/03:34pm 12.9 W 26 36 1016.9 - 6.2 - Partly cloudy 10 - - - -
26/03:30pm 13.0 W 27 37 1016.8 - 6.2 - Cloudy 10 - - - -
26/03:20pm 13.1 W 27 37 1016.9 - 6.2 - Partly cloudy 6 - - - -
26/03:16pm 13.1 W 28 37 1016.8 - 6.2 - Partly cloudy 6 - - - -
26/03:05pm 12.9 W 29 41 1016.6 - 6.0 - Partly cloudy 10 - - - -
26/03:00pm 12.8 W 31 41 1016.6 - 6.0 - Partly cloudy 10 - - - -
26/02:39pm 12.6 W 26 38 1016.7 - 5.8 - Partly cloudy 6 - - - -
26/02:30pm 12.7 W 27 40 1016.5 - 5.6 Rain Cloudy 8 - - - -
26/02:06pm 12.4 W 28 39 1016.5 - 5.4 - Partly cloudy 10 - - - -
26/02:00pm 12.3 W 26 41 1016.4 - 5.4 - Partly cloudy 10 - - - -
26/01:34pm 12.1 W 28 40 1016.3 - 5.4 - Partly cloudy 5 - - - -
26/01:30pm 12.2 W 28 40 1016.4 - 5.0 - Partly cloudy 6 - - - -
26/01:01pm 12.0 W 27 40 1016.2 - 4.6 - Partly cloudy 6 - - - -
26/01:00pm 11.9 W 27 40 1016.2 - 4.6 - Partly cloudy 7 - - - -
26/12:58pm 12.0 W 27 40 1016.1 - 4.4 - Partly cloudy 10 - - - -
26/12:30pm 11.2 W 24 36 1016.5 - 3.8 - Partly cloudy 4 - - - -
26/12:29pm 11.3 W 24 35 1016.4 - 3.8 - Partly cloudy 6 - - - -
26/12:07pm 11.8 W 23 33 1016.6 - 3.4 - Partly cloudy 10 - - - -
26/12:00pm 11.0 W 23 35 1016.7 - 3.4 - Partly cloudy 8 - - - -
26/11:39am 11.0 W 23 33 1016.6 - 2.6 - Partly cloudy 6 - - - -
26/11:38am 11.1 W 22 33 1016.7 - 2.6 - Partly cloudy 7 - - - -
26/11:30am 11.1 W 21 30 1016.6 - 2.6 Rain Cloudy 9 - - - -
26/11:28am 11.1 W 21 30 1016.7 - 2.6 - Partly cloudy 10 - - - -
26/11:09am 10.7 W 22 38 1016.7 - 2.2 - Partly cloudy 6 - - - -
26/11:00am 10.8 WNW 21 30 1016.8 - 1.4 - Partly cloudy 10 - - - -
26/10:52am 10.8 W 20 30 1016.8 - 1.4 - Partly cloudy 10 - - - -
26/10:38am 9.9 W 25 38 1016.9 - 1.4 - Partly cloudy 6 - - - -
26/10:31am 11.7 WNW 23 36 1016.5 - 0.8 - Partly cloudy 10 - - - -
26/10:30am 11.9 WNW 23 32 1016.4 - 0.8 - Partly cloudy 10 - - - -
26/10:13am 12.1 W 24 35 1016.4 - 0.8 - Partly cloudy 10 - - - -
26/10:00am 12.5 W 22 29 1016.3 - 0.8 - Partly cloudy 10 - - - -
26/09:50am 12.8 W 22 34 1016.3 - 0.8 - Partly cloudy 10 - - - -
26/09:37am 11.1 W 21 31 1016.5 - 0.6 - Partly cloudy 6 - - - -
26/09:34am 11.4 W 23 31 1016.3 - 0.6 - Partly cloudy 6 - - - -
26/09:30am 12.5 W 22 31 1016.4 - 0.0 - Partly cloudy 10 - - - -
26/09:00am 12.3 W 21 32 1016.1 - 0.0 - Partly cloudy 10 - - - -
26/08:30am 10.5 W 22 37 1016.2 - 14.8 Recent precip. Cloudy 10 - - - -
26/08:23am 12.0 W 19 29 1016.1 - 14.8 - Partly cloudy 10 - - - -
26/08:00am 10.6 W 18 25 1016.1 - 14.8 - Partly cloudy 10 - - - -
26/07:41am 11.0 W 17 28 1015.9 - 14.6 - Partly cloudy 10 - - - -
26/07:30am 10.6 WSW 18 25 1015.7 - 14.6 - Partly cloudy 10 - - - -
26/07:00am 9.4 W 14 23 1015.4 - 14.6 - Partly cloudy 10 - - - -
26/06:45am 9.5 W 12 22 1015.4 - 14.6 - Partly cloudy 10 - - - -
26/06:35am 7.8 SW 8 11 1015.5 - 14.6 - Partly cloudy 10 - - - -
26/06:30am 7.7 WSW 10 18 1015.5 - 14.6 - Partly cloudy 10 - - - -
26/06:18am 8.5 W 19 41 1015.6 - 14.4 - Partly cloudy 6 - - - -
26/06:16am 9.4 W 17 41 1015.4 - 14.2 - Partly cloudy 10 - - - -
26/06:15am 10.2 W 15 28 1015.4 - 14.0 - Partly cloudy 10 - - - -
26/06:00am 10.6 W 15 24 1015.0 - 14.0 - Partly cloudy 10 - - - -
26/05:30am 10.3 WSW 17 22 1015.0 - 14.0 Recent precip. Mostly cloudy 10 - - - -
26/05:11am 10.0 W 16 26 1014.7 - 14.0 - Partly cloudy 10 - - - -
26/05:00am 9.7 W 13 18 1014.8 - 14.0 - Partly cloudy 10 - - - -
26/04:30am 9.0 W 14 18 1014.7 - 13.8 - Partly cloudy 10 - - - -
26/04:07am 9.2 WSW 19 33 1014.6 - 13.6 - Partly cloudy 10 - - - -
26/04:00am 9.4 WSW 16 23 1014.7 - 13.6 - Partly cloudy 10 - - - -

Other Formats:

Comma delimited format used in spreadsheet applications
http://www.bom.gov.au/fwo/IDS60701/IDS60701.94828.axf

JavaScript Object Notation format (JSON) in row-major order
http://www.bom.gov.au/fwo/IDS60701/IDS60701.94828.json